Inicio METAR Ruta Wind Satelite

Informe Meteorológico

Fecha: 2020/12/01 18:21:08 Local
2020.12.01 23:21 UTC


Estado: VIGENTE
Operación:VFR
Leticia / Vasquez Cobo, Colombia (SKLT) 04-10S 069-57W 84M
Dec 01, 2020 - 06:00 PM EST / 2020.12.01 2300 UTC
Wind: Variable at 2 MPH (2 KT):0
Visibility: greater than 7 mile(s):0
Sky conditions: mostly cloudy
Temperature: 78 F (26 C)
Dew Point: 71 F (22 C)
Relative Humidity: 78%
Pressure (altimeter): 29.75 in. Hg (1007 hPa)
ob: SKLT 012300Z VRB02KT 9999 SCT015 BKN200 26/22 A2975
cycle: 23

SKLT 012200Z 05005KT 020V090 9999 SCT015 BKN200 28/23 A2973
SKLT 012100Z 34005KT 300V010 9999 SCT017TCU BKN200 30/24 A2973 RMK TCU/NE
SKLT 011900Z 06005KT 020V110 9999 BKN017 32/23 A2976
SKLT 011807Z 20003KT 9999 BKN015 FEW020CB 33/26 A2980 RMK CB/S
SKLT 011700Z VRB02KT 9999 BKN020 32/25 A2986

2020/12/01 18:45
TAF SKLT 011630Z 0118/0218 25006KT 9999 SCT017 SCT090
TEMPO 0119/0122 RADZ SCT015CB
BECMG 0201/0203 00000KT
TEMPO 0209/0212 2000 BR SCT010 TX32/0118Z TN23/0210Z